Time;durP1;ratioP1;P1;durP2;ratioP2;P2;SDS_P1;SDS_P2;PMS_P1;PMS_P2;Temp;Humidity;BMP_temperature;BMP_pressure;BME280_temperature;BME280_humidity;BME280_pressure;Samples;Min_cycle;Max_cycle;Signal;HPM_P1;HPM_P2
2023/02/04 00:01:40;;;;;;;13.38;4.35;;;;;;;;;;5079782;28;20292;-86
2023/02/04 00:04:08;;;;;;;19.20;4.70;;;;;;;;;;5080281;28;20289;-86
2023/02/04 00:06:35;;;;;;;12.27;4.50;;;;;;;;;;5080088;28;20217;-84
2023/02/04 00:09:03;;;;;;;12.82;4.63;;;;;;;;;;5079275;28;20231;-86
2023/02/04 00:11:31;;;;;;;11.90;3.80;;;;;;;;;;5079968;28;20229;-86
2023/02/04 00:13:59;;;;;;;10.20;3.60;;;;;;;;;;5078922;28;20291;-86
2023/02/04 00:16:26;;;;;;;7.80;3.63;;;;;;;;;;5078426;28;20284;-86
2023/02/04 00:18:54;;;;;;;11.75;3.30;;;;;;;;;;5077913;28;20287;-85
2023/02/04 00:21:22;;;;;;;17.58;5.68;;;;;;;;;;5078423;28;20239;-86
2023/02/04 00:23:50;;;;;;;14.75;5.43;;;;;;;;;;5076185;28;20254;-86
2023/02/04 00:26:17;;;;;;;14.60;4.28;;;;;;;;;;5075079;28;20205;-86
2023/02/04 00:28:46;;;;;;;11.30;4.72;;;;;;;;;;5074481;28;20201;-87
2023/02/04 00:31:14;;;;;;;13.52;3.67;;;;;;;;;;5074884;28;20315;-86
2023/02/04 00:33:42;;;;;;;17.45;4.72;;;;;;;;;;5075015;28;20201;-86
2023/02/04 00:36:10;;;;;;;13.95;4.05;;;;;;;;;;5075122;28;20809;-86
2023/02/04 00:38:37;;;;;;;13.70;3.60;;;;;;;;;;5074607;28;20228;-86
2023/02/04 00:41:05;;;;;;;12.38;4.05;;;;;;;;;;5074053;28;20221;-85
2023/02/04 00:43:33;;;;;;;11.10;3.10;;;;;;;;;;5075128;28;20291;-87
2023/02/04 00:46:02;;;;;;;13.55;4.22;;;;;;;;;;5075018;28;20231;-87
2023/02/04 00:48:29;;;;;;;16.02;3.70;;;;;;;;;;5074718;28;20640;-86
2023/02/04 00:50:57;;;;;;;14.38;3.17;;;;;;;;;;5073114;28;20311;-86
2023/02/04 00:53:24;;;;;;;9.40;3.22;;;;;;;;;;5074937;28;20263;-87
2023/02/04 00:55:52;;;;;;;9.52;3.20;;;;;;;;;;5074829;28;20338;-87
2023/02/04 00:58:19;;;;;;;8.95;3.60;;;;;;;;;;5074392;28;20229;-85
2023/02/04 01:00:47;;;;;;;8.35;2.58;;;;;;;;;;5074836;28;20217;-86
2023/02/04 01:03:16;;;;;;;8.82;2.63;;;;;;;;;;5074912;28;20235;-85
2023/02/04 01:05:43;;;;;;;8.43;2.88;;;;;;;;;;5074399;28;20246;-85
2023/02/04 01:08:11;;;;;;;7.03;2.72;;;;;;;;;;5073275;28;20251;-86
2023/02/04 01:10:38;;;;;;;8.05;3.53;;;;;;;;;;5074281;28;20311;-87
2023/02/04 01:13:07;;;;;;;6.10;3.30;;;;;;;;;;5074378;28;20292;-86
2023/02/04 01:15:34;;;;;;;11.68;3.03;;;;;;;;;;5074221;28;20294;-87
2023/02/04 01:18:02;;;;;;;11.43;3.40;;;;;;;;;;5072998;28;20207;-86
2023/02/04 01:20:31;;;;;;;9.10;3.10;;;;;;;;;;5074626;28;20753;-86
2023/02/04 01:22:58;;;;;;;7.22;3.80;;;;;;;;;;5074083;28;20292;-85
2023/02/04 01:25:26;;;;;;;10.27;3.30;;;;;;;;;;5074010;28;20232;-86
2023/02/04 01:27:53;;;;;;;15.27;3.90;;;;;;;;;;5072676;28;20580;-87
2023/02/04 01:30:21;;;;;;;11.73;2.90;;;;;;;;;;5072550;28;20229;-87
2023/02/04 01:32:48;;;;;;;10.15;3.10;;;;;;;;;;5074325;28;20316;-87
2023/02/04 01:35:16;;;;;;;19.90;3.90;;;;;;;;;;5073761;28;20260;-86
2023/02/04 01:37:45;;;;;;;11.98;2.90;;;;;;;;;;5074297;28;20288;-86
2023/02/04 01:40:13;;;;;;;10.25;2.92;;;;;;;;;;5073004;28;20309;-85
2023/02/04 01:42:41;;;;;;;11.27;3.08;;;;;;;;;;5073726;28;20288;-86
2023/02/04 01:45:10;;;;;;;7.13;2.90;;;;;;;;;;5073069;28;20291;-86
2023/02/04 01:47:38;;;;;;;11.40;3.05;;;;;;;;;;5073902;28;20197;-86
2023/02/04 01:50:06;;;;;;;10.52;3.05;;;;;;;;;;5073098;28;20516;-87
2023/02/04 01:52:37;;;;;;;7.38;2.67;;;;;;;;;;5073858;28;20228;-86
2023/02/04 01:55:11;;;;;;;4.30;2.25;;;;;;;;;;5073018;28;20709;-86
2023/02/04 01:57:39;;;;;;;8.60;3.10;;;;;;;;;;5073616;28;20265;-87
2023/02/04 02:00:11;;;;;;;8.20;2.92;;;;;;;;;;5072482;28;20227;-86
2023/02/04 02:02:44;;;;;;;9.43;2.53;;;;;;;;;;5073809;28;20272;-87
2023/02/04 02:05:17;;;;;;;8.63;2.72;;;;;;;;;;5073359;28;20281;-87
2023/02/04 02:07:44;;;;;;;10.13;2.60;;;;;;;;;;5073627;28;20228;-87
2023/02/04 02:10:14;;;;;;;7.97;2.85;;;;;;;;;;5072553;28;20216;-86
2023/02/04 02:12:42;;;;;;;9.15;3.00;;;;;;;;;;5071774;28;20231;-87
2023/02/04 02:15:12;;;;;;;9.45;3.17;;;;;;;;;;5073081;28;20727;-86
2023/02/04 02:17:40;;;;;;;9.25;2.80;;;;;;;;;;5073278;28;20193;-87
2023/02/04 02:20:09;;;;;;;10.73;3.55;;;;;;;;;;5072477;28;20277;-87
2023/02/04 02:22:56;;;;;;;11.00;3.13;;;;;;;;;;5072385;28;20299;-86
2023/02/04 02:25:24;;;;;;;8.80;2.50;;;;;;;;;;5073457;28;20191;-87
2023/02/04 02:27:52;;;;;;;12.02;3.40;;;;;;;;;;5072898;28;20224;-87
2023/02/04 02:30:20;;;;;;;14.10;3.50;;;;;;;;;;5072255;28;20229;-87
2023/02/04 02:32:48;;;;;;;13.02;3.88;;;;;;;;;;5073225;28;20661;-85
2023/02/04 02:35:16;;;;;;;7.07;2.55;;;;;;;;;;5072702;28;20193;-85
2023/02/04 02:37:44;;;;;;;7.25;3.30;;;;;;;;;;5072979;28;20231;-87
2023/02/04 02:40:13;;;;;;;8.77;3.22;;;;;;;;;;5072653;28;20263;-87
2023/02/04 02:42:44;;;;;;;7.50;3.13;;;;;;;;;;5073483;28;20561;-86
2023/02/04 02:45:21;;;;;;;9.75;3.67;;;;;;;;;;5072807;28;20546;-86
2023/02/04 02:47:49;;;;;;;10.52;3.90;;;;;;;;;;5072500;28;20867;-86
2023/02/04 02:50:20;;;;;;;7.68;3.35;;;;;;;;;;5072139;28;20309;-87
2023/02/04 02:52:48;;;;;;;7.75;3.53;;;;;;;;;;5072751;28;20229;-87
2023/02/04 02:55:18;;;;;;;16.50;4.05;;;;;;;;;;5072281;28;20235;-87
2023/02/04 02:57:49;;;;;;;15.27;3.72;;;;;;;;;;5072916;28;20226;-86
2023/02/04 03:00:19;;;;;;;17.48;4.15;;;;;;;;;;5070640;28;20217;-85
2023/02/04 03:02:55;;;;;;;7.20;2.83;;;;;;;;;;5072620;28;20579;-86
2023/02/04 03:05:22;;;;;;;9.30;3.83;;;;;;;;;;5072498;28;20737;-87
2023/02/04 03:07:50;;;;;;;15.57;4.05;;;;;;;;;;5072347;28;20203;-86
2023/02/04 03:10:18;;;;;;;8.05;3.33;;;;;;;;;;5072424;28;20307;-86
2023/02/04 03:12:47;;;;;;;8.70;3.45;;;;;;;;;;5070969;28;20319;-86
2023/02/04 03:15:15;;;;;;;8.77;3.35;;;;;;;;;;5072672;28;20195;-86
2023/02/04 03:17:43;;;;;;;14.13;3.78;;;;;;;;;;5062272;28;20636;-86
2023/02/04 03:20:12;;;;;;;9.77;3.67;;;;;;;;;;5051528;28;20259;-86
2023/02/04 03:22:39;;;;;;;13.60;3.33;;;;;;;;;;5051392;28;20288;-86
2023/02/04 03:25:08;;;;;;;8.68;2.97;;;;;;;;;;5052726;28;20233;-86
2023/02/04 03:27:36;;;;;;;6.05;2.35;;;;;;;;;;5052669;28;20217;-86
2023/02/04 03:30:07;;;;;;;9.82;3.60;;;;;;;;;;5051596;28;20260;-86
2023/02/04 03:32:35;;;;;;;11.50;5.53;;;;;;;;;;5052537;28;20212;-87
2023/02/04 03:35:02;;;;;;;13.93;3.67;;;;;;;;;;5052578;28;20292;-86
2023/02/04 03:37:30;;;;;;;11.48;3.85;;;;;;;;;;5052383;28;20620;-86
2023/02/04 03:39:57;;;;;;;10.57;3.08;;;;;;;;;;5052001;28;20312;-87
2023/02/04 03:42:24;;;;;;;7.55;3.95;;;;;;;;;;5068451;28;20227;-86
2023/02/04 03:44:52;;;;;;;7.95;3.63;;;;;;;;;;5072535;28;20317;-86
2023/02/04 03:47:21;;;;;;;8.68;2.53;;;;;;;;;;5072191;28;20228;-86
2023/02/04 03:49:48;;;;;;;8.32;3.75;;;;;;;;;;5071370;28;20252;-86
2023/02/04 03:52:16;;;;;;;5.80;3.55;;;;;;;;;;5072192;28;20316;-85
2023/02/04 03:54:43;;;;;;;4.75;2.53;;;;;;;;;;5072115;28;20220;-86
2023/02/04 03:57:11;;;;;;;9.15;3.78;;;;;;;;;;5071834;28;20209;-86
2023/02/04 03:59:38;;;;;;;8.25;2.70;;;;;;;;;;5072624;28;20227;-87
2023/02/04 04:02:06;;;;;;;10.80;2.80;;;;;;;;;;5075869;28;20237;-87
2023/02/04 04:04:35;;;;;;;6.82;3.35;;;;;;;;;;5075831;28;20288;-85
2023/02/04 04:07:02;;;;;;;9.63;3.78;;;;;;;;;;5075727;28;20212;-85
2023/02/04 04:09:30;;;;;;;9.00;3.30;;;;;;;;;;5074392;28;20308;-87
2023/02/04 04:11:57;;;;;;;10.20;3.78;;;;;;;;;;5075483;28;20247;-86
2023/02/04 04:14:25;;;;;;;8.57;3.10;;;;;;;;;;5075021;28;20630;-87
2023/02/04 04:16:52;;;;;;;7.38;3.55;;;;;;;;;;5075456;28;20205;-86
2023/02/04 04:19:20;;;;;;;9.50;2.78;;;;;;;;;;5074848;28;20263;-86
2023/02/04 04:21:48;;;;;;;9.77;3.78;;;;;;;;;;5075640;28;20288;-86
2023/02/04 04:24:16;;;;;;;8.32;2.55;;;;;;;;;;5073831;28;20220;-86
2023/02/04 04:26:43;;;;;;;9.60;3.00;;;;;;;;;;5075363;28;20232;-87
2023/02/04 04:29:11;;;;;;;7.40;2.67;;;;;;;;;;5074665;28;20248;-87
2023/02/04 04:31:38;;;;;;;6.65;3.08;;;;;;;;;;5075051;28;20237;-86
2023/02/04 04:34:06;;;;;;;6.13;2.55;;;;;;;;;;5075146;28;20312;-86
2023/02/04 04:36:33;;;;;;;9.75;3.58;;;;;;;;;;5073608;28;20233;-86
2023/02/04 04:39:02;;;;;;;6.65;2.50;;;;;;;;;;5074715;28;20650;-86
2023/02/04 04:41:30;;;;;;;7.25;3.05;;;;;;;;;;5073723;28;20280;-87
2023/02/04 04:43:57;;;;;;;12.32;3.35;;;;;;;;;;5075068;28;20664;-87
2023/02/04 04:46:25;;;;;;;8.82;3.58;;;;;;;;;;5075216;28;20240;-86
2023/02/04 04:48:52;;;;;;;5.78;2.90;;;;;;;;;;5074720;28;20297;-86
2023/02/04 04:51:20;;;;;;;5.75;3.35;;;;;;;;;;5074951;28;20228;-86
2023/02/04 04:53:47;;;;;;;8.80;3.10;;;;;;;;;;5073887;28;20709;-86
2023/02/04 04:56:17;;;;;;;7.38;3.03;;;;;;;;;;5074498;28;20288;-87
2023/02/04 04:58:45;;;;;;;6.82;2.53;;;;;;;;;;5074518;28;20231;-86
2023/02/04 05:01:12;;;;;;;5.53;2.50;;;;;;;;;;5074091;28;20304;-86
2023/02/04 05:03:40;;;;;;;9.95;3.58;;;;;;;;;;5074573;28;20232;-86
2023/02/04 05:06:08;;;;;;;9.50;3.65;;;;;;;;;;5074619;28;20207;-86
2023/02/04 05:08:35;;;;;;;8.95;3.00;;;;;;;;;;5074115;28;20463;-85
2023/02/04 05:11:03;;;;;;;7.15;2.75;;;;;;;;;;5072824;28;20304;-86
2023/02/04 05:13:32;;;;;;;5.93;2.20;;;;;;;;;;5074500;28;20316;-86
2023/02/04 05:16:00;;;;;;;7.00;2.08;;;;;;;;;;5074455;28;20228;-86
2023/02/04 05:18:27;;;;;;;8.63;3.00;;;;;;;;;;5073904;28;20203;-86
2023/02/04 05:20:54;;;;;;;4.47;3.35;;;;;;;;;;5074119;28;20259;-87
2023/02/04 05:23:22;;;;;;;4.30;2.15;;;;;;;;;;5074306;28;20632;-86
2023/02/04 05:25:49;;;;;;;3.15;1.65;;;;;;;;;;5074504;28;20207;-86
2023/02/04 05:28:17;;;;;;;6.00;2.00;;;;;;;;;;5073907;28;20244;-86
2023/02/04 05:30:46;;;;;;;6.68;2.67;;;;;;;;;;5073878;28;20320;-86
2023/02/04 05:33:13;;;;;;;6.68;2.33;;;;;;;;;;5074155;28;20209;-86
2023/02/04 05:35:41;;;;;;;5.15;1.80;;;;;;;;;;5074277;28;20288;-86
2023/02/04 05:38:08;;;;;;;4.97;1.90;;;;;;;;;;5073277;28;20236;-85
2023/02/04 05:40:36;;;;;;;3.50;2.00;;;;;;;;;;5073985;28;20308;-87
2023/02/04 05:43:03;;;;;;;9.63;2.35;;;;;;;;;;5074123;28;20216;-87
2023/02/04 05:45:31;;;;;;;4.05;1.80;;;;;;;;;;5074167;28;20197;-86
2023/02/04 05:48:00;;;;;;;7.03;2.08;;;;;;;;;;5073383;28;20324;-87
2023/02/04 05:50:27;;;;;;;4.45;1.75;;;;;;;;;;5073703;28;20274;-87
2023/02/04 05:52:55;;;;;;;10.27;1.83;;;;;;;;;;5072578;28;20201;-87
2023/02/04 05:55:22;;;;;;;4.88;1.50;;;;;;;;;;5073884;28;20225;-88
2023/02/04 05:57:52;;;;;;;2.53;1.15;;;;;;;;;;5073837;28;20231;-87
2023/02/04 06:00:20;;;;;;;2.10;0.95;;;;;;;;;;5072869;28;20306;-87
2023/02/04 06:02:48;;;;;;;1.23;0.82;;;;;;;;;;5073536;28;20284;-87
2023/02/04 06:05:17;;;;;;;0.90;0.80;;;;;;;;;;5073223;28;20283;-87
2023/02/04 06:07:44;;;;;;;0.75;0.73;;;;;;;;;;5073323;28;20671;-87
2023/02/04 06:10:12;;;;;;;1.25;0.80;;;;;;;;;;5072270;28;20586;-88
2023/02/04 06:12:40;;;;;;;0.60;0.60;;;;;;;;;;5073349;28;20283;-88
2023/02/04 06:15:08;;;;;;;0.30;0.30;;;;;;;;;;5073235;28;20345;-87
2023/02/04 06:17:36;;;;;;;0.50;0.50;;;;;;;;;;5073016;28;20200;-87
2023/02/04 06:20:04;;;;;;;0.50;0.50;;;;;;;;;;5072761;28;20216;-88
2023/02/04 06:22:33;;;;;;;0.65;0.65;;;;;;;;;;5071629;28;20197;-88
2023/02/04 06:25:01;;;;;;;0.38;0.38;;;;;;;;;;5072576;28;20197;-89
2023/02/04 06:27:28;;;;;;;0.50;0.50;;;;;;;;;;5072747;28;20239;-88
2023/02/04 06:29:56;;;;;;;0.70;0.70;;;;;;;;;;5072579;28;20725;-87
2023/02/04 06:32:24;;;;;;;0.60;0.60;;;;;;;;;;5072557;28;20211;-89
2023/02/04 06:34:51;;;;;;;0.63;0.63;;;;;;;;;;5072630;28;20601;-88
2023/02/04 06:37:19;;;;;;;0.73;0.73;;;;;;;;;;5072672;28;20292;-88
2023/02/04 06:39:48;;;;;;;0.60;0.60;;;;;;;;;;5072502;28;20217;-89
2023/02/04 06:42:15;;;;;;;0.77;0.70;;;;;;;;;;5072426;28;20279;-89
2023/02/04 06:44:43;;;;;;;0.68;0.68;;;;;;;;;;5072708;28;20197;-88
2023/02/04 06:47:10;;;;;;;0.80;0.80;;;;;;;;;;5072396;28;20235;-89
2023/02/04 06:49:38;;;;;;;0.80;0.80;;;;;;;;;;5072237;28;20307;-88
2023/02/04 06:52:06;;;;;;;0.98;0.90;;;;;;;;;;5072622;28;20295;-88
2023/02/04 06:54:33;;;;;;;0.70;0.70;;;;;;;;;;5071838;28;20312;-88
2023/02/04 06:57:05;;;;;;;0.70;0.70;;;;;;;;;;5072555;28;20722;-87
2023/02/04 06:59:33;;;;;;;1.00;0.95;;;;;;;;;;5072167;28;20621;-88
2023/02/04 07:02:01;;;;;;;0.85;0.85;;;;;;;;;;5072068;28;20292;-88
2023/02/04 07:04:28;;;;;;;0.60;0.60;;;;;;;;;;5072082;28;20292;-88
2023/02/04 07:06:56;;;;;;;0.90;0.90;;;;;;;;;;5072185;28;20208;-88
2023/02/04 07:09:23;;;;;;;0.80;0.80;;;;;;;;;;5072007;28;20311;-88
2023/02/04 07:11:51;;;;;;;0.70;0.70;;;;;;;;;;5071953;28;20704;-89
2023/02/04 07:14:20;;;;;;;0.60;0.60;;;;;;;;;;5072353;28;20231;-87
2023/02/04 07:16:47;;;;;;;0.95;0.80;;;;;;;;;;5072370;28;20205;-88
2023/02/04 07:19:15;;;;;;;1.38;0.70;;;;;;;;;;5071993;28;20623;-88
2023/02/04 07:21:42;;;;;;;0.65;0.57;;;;;;;;;;5072261;28;20201;-88
2023/02/04 07:24:10;;;;;;;0.90;0.90;;;;;;;;;;5072207;28;20228;-87
2023/02/04 07:26:37;;;;;;;0.98;0.90;;;;;;;;;;5072299;28;20236;-88
2023/02/04 07:29:05;;;;;;;0.93;0.80;;;;;;;;;;5071491;28;20287;-89
2023/02/04 07:31:33;;;;;;;0.80;0.80;;;;;;;;;;5071783;28;20289;-88
2023/02/04 07:34:01;;;;;;;0.90;0.90;;;;;;;;;;5074375;28;20299;-88
2023/02/04 07:36:28;;;;;;;0.80;0.80;;;;;;;;;;5076014;28;20591;-88
2023/02/04 07:38:56;;;;;;;0.88;0.88;;;;;;;;;;5075452;28;20292;-88
2023/02/04 07:41:23;;;;;;;1.25;1.20;;;;;;;;;;5075722;28;20236;-88
2023/02/04 07:43:51;;;;;;;0.70;0.70;;;;;;;;;;5075909;28;20279;-88
2023/02/04 07:46:18;;;;;;;0.82;0.82;;;;;;;;;;5076080;28;20250;-88
2023/02/04 07:48:47;;;;;;;3.03;1.58;;;;;;;;;;5075734;28;20200;-88
2023/02/04 07:51:15;;;;;;;0.95;0.90;;;;;;;;;;5075761;28;20252;-88
2023/02/04 07:53:46;;;;;;;0.80;0.80;;;;;;;;;;5076063;28;20223;-88
2023/02/04 07:56:13;;;;;;;0.73;0.73;;;;;;;;;;5075740;28;20212;-89
2023/02/04 07:58:41;;;;;;;1.17;1.08;;;;;;;;;;5075282;28;20258;-88
2023/02/04 08:01:09;;;;;;;1.05;1.05;;;;;;;;;;5075790;28;20598;-88
2023/02/04 08:03:36;;;;;;;1.17;1.08;;;;;;;;;;5075720;28;20193;-89
2023/02/04 08:06:05;;;;;;;0.90;0.88;;;;;;;;;;5075893;28;20284;-89
2023/02/04 08:08:33;;;;;;;1.30;1.20;;;;;;;;;;5075361;28;20616;-88
2023/02/04 08:11:00;;;;;;;3.03;1.48;;;;;;;;;;5074263;28;20263;-87
2023/02/04 08:13:28;;;;;;;1.25;1.20;;;;;;;;;;5075640;28;20229;-88
2023/02/04 08:15:55;;;;;;;1.40;1.27;;;;;;;;;;5076067;28;20260;-87
2023/02/04 08:18:24;;;;;;;1.25;1.20;;;;;;;;;;5075977;28;20259;-88
2023/02/04 08:20:51;;;;;;;1.05;1.05;;;;;;;;;;5075672;28;20604;-87
2023/02/04 08:23:21;;;;;;;1.50;1.40;;;;;;;;;;5075687;28;20209;-87
2023/02/04 08:25:49;;;;;;;1.90;1.33;;;;;;;;;;5055389;28;20251;-88
2023/02/04 08:28:16;;;;;;;1.42;1.33;;;;;;;;;;5054659;28;20241;-87
2023/02/04 08:30:44;;;;;;;1.10;1.10;;;;;;;;;;5055063;28;20637;-88
2023/02/04 08:33:12;;;;;;;1.00;1.00;;;;;;;;;;5054980;28;20205;-87
2023/02/04 08:35:39;;;;;;;1.27;1.17;;;;;;;;;;5054911;28;20719;-89
2023/02/04 08:38:06;;;;;;;1.20;1.10;;;;;;;;;;5054641;28;20248;-87
2023/02/04 08:40:35;;;;;;;1.38;1.25;;;;;;;;;;5054845;28;20225;-88
2023/02/04 08:43:03;;;;;;;1.40;1.30;;;;;;;;;;5055225;28;20243;-88
2023/02/04 08:45:30;;;;;;;0.82;0.82;;;;;;;;;;5054152;28;20252;-88
2023/02/04 08:47:58;;;;;;;2.45;1.20;;;;;;;;;;5055654;28;20237;-88
2023/02/04 08:50:27;;;;;;;0.90;0.90;;;;;;;;;;5054934;28;20586;-88
2023/02/04 08:52:55;;;;;;;0.80;0.80;;;;;;;;;;5055404;28;20193;-88
2023/02/04 08:55:22;;;;;;;1.80;1.70;;;;;;;;;;5054459;28;20257;-88
2023/02/04 08:57:51;;;;;;;0.80;0.80;;;;;;;;;;5054479;28;20294;-88
2023/02/04 09:00:19;;;;;;;0.80;0.80;;;;;;;;;;5054856;28;20245;-88
2023/02/04 09:02:50;;;;;;;1.75;1.00;;;;;;;;;;5055022;28;20201;-88
2023/02/04 09:05:18;;;;;;;1.13;1.10;;;;;;;;;;5055891;28;20197;-88
2023/02/04 09:07:46;;;;;;;1.48;1.38;;;;;;;;;;5055226;28;20202;-88
2023/02/04 09:10:13;;;;;;;1.65;1.40;;;;;;;;;;5054725;28;20240;-89
2023/02/04 09:12:41;;;;;;;1.55;1.45;;;;;;;;;;5073513;28;20244;-89
2023/02/04 09:15:12;;;;;;;1.20;1.10;;;;;;;;;;5074993;28;20279;-88
2023/02/04 09:17:42;;;;;;;1.02;1.02;;;;;;;;;;5074894;28;20268;-88
2023/02/04 09:20:12;;;;;;;0.98;0.98;;;;;;;;;;5074188;28;20308;-88
2023/02/04 09:22:39;;;;;;;1.30;1.20;;;;;;;;;;5074842;28;20565;-88
2023/02/04 09:25:08;;;;;;;1.52;1.42;;;;;;;;;;5074842;28;20233;-87
2023/02/04 09:27:36;;;;;;;1.50;1.40;;;;;;;;;;5074770;28;20287;-88
2023/02/04 09:30:04;;;;;;;1.10;1.00;;;;;;;;;;5073836;28;20224;-86
2023/02/04 09:32:33;;;;;;;1.98;1.20;;;;;;;;;;5074201;28;20743;-87
2023/02/04 09:35:00;;;;;;;1.63;1.50;;;;;;;;;;5074092;28;20223;-86
2023/02/04 09:37:28;;;;;;;1.60;1.50;;;;;;;;;;5074179;28;20216;-86
2023/02/04 09:39:55;;;;;;;1.77;1.67;;;;;;;;;;5073165;28;20260;-87
2023/02/04 09:42:25;;;;;;;1.35;1.25;;;;;;;;;;5074114;28;20658;-86
2023/02/04 09:44:53;;;;;;;1.50;1.40;;;;;;;;;;5073496;28;20197;-86
2023/02/04 09:47:23;;;;;;;1.60;1.40;;;;;;;;;;5073423;28;20228;-87
2023/02/04 09:49:52;;;;;;;1.60;1.50;;;;;;;;;;5073280;28;20564;-87
2023/02/04 09:52:23;;;;;;;1.40;1.30;;;;;;;;;;5073750;28;20232;-87
2023/02/04 09:54:50;;;;;;;1.00;1.00;;;;;;;;;;5072891;28;20236;-87
2023/02/04 09:57:20;;;;;;;1.02;1.02;;;;;;;;;;5072830;28;20693;-88
2023/02/04 09:59:48;;;;;;;1.23;1.13;;;;;;;;;;5072764;28;20257;-86
2023/02/04 10:02:23;;;;;;;0.93;0.93;;;;;;;;;;5073690;28;20228;-87
2023/02/04 10:04:56;;;;;;;1.00;1.00;;;;;;;;;;5073189;28;20649;-87
2023/02/04 10:07:25;;;;;;;0.80;0.80;;;;;;;;;;5073593;28;20189;-87
2023/02/04 10:09:53;;;;;;;1.08;1.00;;;;;;;;;;5073587;28;20732;-87
2023/02/04 10:12:21;;;;;;;1.30;1.20;;;;;;;;;;5073496;28;20205;-87
2023/02/04 10:14:49;;;;;;;1.45;1.30;;;;;;;;;;5073335;28;20207;-87
2023/02/04 10:17:20;;;;;;;1.40;1.30;;;;;;;;;;5073152;28;20221;-87
2023/02/04 10:19:48;;;;;;;0.90;0.90;;;;;;;;;;5073004;28;20762;-87
2023/02/04 10:22:19;;;;;;;1.85;1.75;;;;;;;;;;5073244;28;20311;-87
2023/02/04 10:24:47;;;;;;;2.05;1.50;;;;;;;;;;5073161;28;20225;-87
2023/02/04 10:27:16;;;;;;;1.55;1.30;;;;;;;;;;5073185;28;20574;-86
2023/02/04 10:29:54;;;;;;;1.50;1.40;;;;;;;;;;5072818;28;21063;-87
2023/02/04 10:32:33;;;;;;;1.67;1.45;;;;;;;;;;5073193;28;20173;-87
2023/02/04 10:35:02;;;;;;;1.10;1.10;;;;;;;;;;5072843;28;20193;-86
2023/02/04 10:37:31;;;;;;;1.40;1.30;;;;;;;;;;5072679;28;20221;-87
2023/02/04 10:39:59;;;;;;;1.67;1.58;;;;;;;;;;5072748;28;20217;-87
2023/02/04 10:42:28;;;;;;;1.20;1.10;;;;;;;;;;5072828;28;20201;-88
2023/02/04 10:44:56;;;;;;;1.20;1.20;;;;;;;;;;5072355;28;20239;-87
2023/02/04 10:47:27;;;;;;;2.65;1.42;;;;;;;;;;5072394;28;20207;-87
2023/02/04 10:49:58;;;;;;;2.08;1.50;;;;;;;;;;5072675;28;20279;-86
2023/02/04 10:52:33;;;;;;;1.45;1.10;;;;;;;;;;5072880;28;20200;-86
2023/02/04 10:55:03;;;;;;;1.63;1.52;;;;;;;;;;5072455;28;20224;-86
2023/02/04 10:57:31;;;;;;;0.90;0.90;;;;;;;;;;5072082;28;20241;-86
2023/02/04 11:00:01;;;;;;;3.75;2.42;;;;;;;;;;5072520;28;20311;-86
2023/02/04 11:02:43;;;;;;;1.92;1.40;;;;;;;;;;5072571;28;20292;-86
2023/02/04 11:05:15;;;;;;;1.65;1.55;;;;;;;;;;5067051;28;20194;-86
2023/02/04 11:07:46;;;;;;;1.50;1.40;;;;;;;;;;5051450;28;20204;-86
2023/02/04 11:10:16;;;;;;;1.52;1.42;;;;;;;;;;5052049;28;20237;-85
2023/02/04 11:12:45;;;;;;;1.67;1.42;;;;;;;;;;5052144;28;20701;-85
2023/02/04 11:15:43;;;;;;;1.42;1.33;;;;;;;;;;5052160;28;20203;-86
2023/02/04 11:18:13;;;;;;;1.58;1.10;;;;;;;;;;5051616;28;20221;-86
2023/02/04 11:20:41;;;;;;;1.20;1.10;;;;;;;;;;5051460;28;20308;-84
2023/02/04 11:23:35;;;;;;;1.70;1.60;;;;;;;;;;5051894;28;20205;-85
2023/02/04 11:26:13;;;;;;;1.65;1.55;;;;;;;;;;5051357;28;20206;-86
2023/02/04 11:28:51;;;;;;;1.63;1.52;;;;;;;;;;5051792;28;20288;-85
2023/02/04 11:31:42;;;;;;;1.30;1.20;;;;;;;;;;5051674;28;20228;-86
2023/02/04 11:34:33;;;;;;;1.50;1.40;;;;;;;;;;5066547;28;20679;-85
2023/02/04 11:37:16;;;;;;;1.75;1.40;;;;;;;;;;5066829;28;20709;-85
2023/02/04 11:39:47;;;;;;;1.20;1.10;;;;;;;;;;5071665;28;20217;-85
2023/02/04 11:42:24;;;;;;;1.25;1.15;;;;;;;;;;5071792;28;20294;-85
2023/02/04 11:44:54;;;;;;;1.20;1.20;;;;;;;;;;5071669;28;20298;-84
2023/02/04 11:47:24;;;;;;;1.83;1.38;;;;;;;;;;5071146;28;20197;-85
2023/02/04 11:49:58;;;;;;;1.55;1.20;;;;;;;;;;5071639;28;20220;-86
2023/02/04 11:52:26;;;;;;;1.13;1.13;;;;;;;;;;5071722;28;20231;-85
2023/02/04 11:54:56;;;;;;;1.20;1.20;;;;;;;;;;5071478;28;20290;-85
2023/02/04 11:57:24;;;;;;;2.65;1.35;;;;;;;;;;5071347;28;20207;-85
2023/02/04 11:59:51;;;;;;;2.72;1.50;;;;;;;;;;5070554;28;20217;-85
2023/02/04 12:02:22;;;;;;;1.75;1.60;;;;;;;;;;5071144;28;20717;-86
2023/02/04 12:04:55;;;;;;;1.90;1.60;;;;;;;;;;5071274;28;20310;-86
2023/02/04 12:07:28;;;;;;;1.30;1.20;;;;;;;;;;5071290;28;20550;-85
2023/02/04 12:09:57;;;;;;;1.08;1.08;;;;;;;;;;5071114;28;20242;-86
2023/02/04 12:12:29;;;;;;;0.90;0.90;;;;;;;;;;5071300;28;20200;-86
2023/02/04 12:15:09;;;;;;;1.20;1.17;;;;;;;;;;5071750;28;20224;-85
2023/02/04 12:17:37;;;;;;;1.58;1.48;;;;;;;;;;5072149;28;20598;-84
2023/02/04 12:20:06;;;;;;;1.00;1.00;;;;;;;;;;5072712;28;20214;-84
2023/02/04 12:22:34;;;;;;;2.75;1.17;;;;;;;;;;5076162;28;20201;-85
2023/02/04 12:25:03;;;;;;;1.65;1.55;;;;;;;;;;5075973;28;20201;-84
2023/02/04 12:27:30;;;;;;;0.80;0.80;;;;;;;;;;5075584;28;20255;-85
2023/02/04 12:29:58;;;;;;;1.30;1.20;;;;;;;;;;5074628;28;20256;-85
2023/02/04 12:32:26;;;;;;;1.20;1.00;;;;;;;;;;5075274;28;20755;-85
2023/02/04 12:34:54;;;;;;;1.42;1.33;;;;;;;;;;5074915;28;20255;-86
2023/02/04 12:37:22;;;;;;;1.77;1.50;;;;;;;;;;5074724;28;20211;-86
2023/02/04 12:39:49;;;;;;;1.48;1.38;;;;;;;;;;5074222;28;20582;-85
2023/02/04 12:42:18;;;;;;;1.65;1.55;;;;;;;;;;5073836;28;20631;-85
2023/02/04 12:44:46;;;;;;;1.55;1.45;;;;;;;;;;5073626;28;20262;-85
2023/02/04 12:47:13;;;;;;;1.40;1.30;;;;;;;;;;5073810;28;20921;-85
2023/02/04 12:49:41;;;;;;;2.05;1.92;;;;;;;;;;5073448;28;20231;-86
2023/02/04 12:52:08;;;;;;;1.50;1.40;;;;;;;;;;5073949;28;20203;-85
2023/02/04 12:54:36;;;;;;;1.30;1.20;;;;;;;;;;5073751;28;20211;-85
2023/02/04 12:57:03;;;;;;;1.48;1.38;;;;;;;;;;5074991;28;20208;-85
2023/02/04 12:59:32;;;;;;;1.50;1.20;;;;;;;;;;5074439;28;20229;-85
2023/02/04 13:01:59;;;;;;;1.58;1.40;;;;;;;;;;5074303;28;20201;-85
2023/02/04 13:04:27;;;;;;;1.90;1.80;;;;;;;;;;5074676;28;20605;-85
2023/02/04 13:06:54;;;;;;;2.92;2.10;;;;;;;;;;5074677;28;20296;-85
2023/02/04 13:09:22;;;;;;;1.85;1.67;;;;;;;;;;5074517;28;20244;-85
2023/02/04 13:11:49;;;;;;;5.35;2.42;;;;;;;;;;5074158;28;20287;-86
2023/02/04 13:14:17;;;;;;;1.60;1.40;;;;;;;;;;5074815;28;20299;-86
2023/02/04 13:16:46;;;;;;;1.70;1.42;;;;;;;;;;5075001;28;20235;-84
2023/02/04 13:19:13;;;;;;;2.08;1.33;;;;;;;;;;5074574;28;20851;-84
2023/02/04 13:21:41;;;;;;;1.27;1.17;;;;;;;;;;5074605;28;20635;-88
2023/02/04 13:24:08;;;;;;;2.22;2.03;;;;;;;;;;5074393;28;20575;-85
2023/02/04 13:26:36;;;;;;;1.20;1.20;;;;;;;;;;5074567;28;20283;-86
2023/02/04 13:29:04;;;;;;;1.88;1.77;;;;;;;;;;5074107;28;20288;-86
2023/02/04 13:31:31;;;;;;;1.33;1.25;;;;;;;;;;5073599;28;20322;-86
2023/02/04 13:34:00;;;;;;;1.30;1.20;;;;;;;;;;5074141;28;20213;-85
2023/02/04 13:36:29;;;;;;;0.98;0.95;;;;;;;;;;5073387;28;20201;-86
2023/02/04 13:38:58;;;;;;;1.40;1.30;;;;;;;;;;5073982;28;20225;-85
2023/02/04 13:41:26;;;;;;;1.60;1.50;;;;;;;;;;5074123;28;20320;-84
2023/02/04 13:43:54;;;;;;;1.58;1.48;;;;;;;;;;5074333;28;20773;-86
2023/02/04 13:46:30;;;;;;;1.27;1.10;;;;;;;;;;5074562;28;20670;-85
2023/02/04 13:48:59;;;;;;;1.48;1.35;;;;;;;;;;5075563;28;20196;-84
2023/02/04 13:51:26;;;;;;;2.03;1.92;;;;;;;;;;5075580;28;20289;-87
2023/02/04 13:53:54;;;;;;;1.70;1.60;;;;;;;;;;5075418;28;20201;-84
2023/02/04 13:56:21;;;;;;;1.77;1.50;;;;;;;;;;5074732;28;20261;-84
2023/02/04 13:58:54;;;;;;;1.40;1.30;;;;;;;;;;5074316;28;20659;-85
2023/02/04 14:01:34;;;;;;;1.10;1.10;;;;;;;;;;5073956;28;20236;-85
2023/02/04 14:04:03;;;;;;;1.35;1.25;;;;;;;;;;5074066;28;20208;-85
2023/02/04 14:06:33;;;;;;;1.67;1.58;;;;;;;;;;5073437;28;20287;-85
2023/02/04 14:09:01;;;;;;;1.80;1.65;;;;;;;;;;5073131;28;20232;-85
2023/02/04 14:11:29;;;;;;;1.70;1.10;;;;;;;;;;5073484;28;20588;-85
2023/02/04 14:13:57;;;;;;;1.20;1.10;;;;;;;;;;5073283;28;20194;-85
2023/02/04 14:16:24;;;;;;;1.17;1.10;;;;;;;;;;5073239;28;20201;-86
2023/02/04 14:18:52;;;;;;;0.80;0.80;;;;;;;;;;5072618;28;20314;-85
2023/02/04 14:21:21;;;;;;;1.20;1.10;;;;;;;;;;5072966;28;20227;-85
2023/02/04 14:23:49;;;;;;;1.27;0.98;;;;;;;;;;5073274;28;20207;-85
2023/02/04 14:26:17;;;;;;;1.98;1.60;;;;;;;;;;5073259;28;20296;-85
2023/02/04 14:28:44;;;;;;;1.50;1.40;;;;;;;;;;5072697;28;20207;-85
2023/02/04 14:31:12;;;;;;;1.85;1.75;;;;;;;;;;5074798;28;20263;-85
2023/02/04 14:33:39;;;;;;;1.27;1.23;;;;;;;;;;5074950;28;20291;-85
2023/02/04 14:36:07;;;;;;;2.00;1.77;;;;;;;;;;5074857;28;20928;-86
2023/02/04 14:38:38;;;;;;;2.10;1.90;;;;;;;;;;5074085;28;20263;-86
2023/02/04 14:41:06;;;;;;;1.80;1.70;;;;;;;;;;5074862;28;20220;-85
2023/02/04 14:43:36;;;;;;;1.60;1.50;;;;;;;;;;5074294;28;20238;-84
2023/02/04 14:46:04;;;;;;;2.47;2.05;;;;;;;;;;5074995;28;20232;-85
2023/02/04 14:48:32;;;;;;;2.97;2.10;;;;;;;;;;5074309;28;20208;-85
2023/02/04 14:50:59;;;;;;;1.98;1.70;;;;;;;;;;5074053;28;20366;-85